Aérodrome :
LOGIN :

S'inscrire | Disclaimer

   EN    FR    IT 

 










Légende :    VFR   VFR Marginal   IFR   IFR Intensif   IFR Très Intensif
Visi : 
Plafond : 
>= 8 km
>= 3000ft
5 à 8 km
1000 à 3000 ft
1500m à 5 km
500 à 1000 ft
800 à 1500m
200 à 500 ft
< 800m
< 200 ft
Symboles :   Orages  Brouillard  Fortes neiges  Fortes précipitations  Vent > 20 kt
SIGMETs :   Divers  Orages  Givrage  Turbulence  Onde Orograph.  Cendres Volcan.






- Altitude de l'aérodrome : 1339 ft


ETHN - Niederstetten

DERNIER METAR :
  • 191220Z 22002KT 9999 OVC004 04/03 Q1016 YLO GRN TEMPO YLO

METARs EXPIRÉS :
  • 191154Z 19002KT 9999 OVC003 04/03 Q1016 YLO GRN TEMPO YLO
  • 191120Z 18003KT 6000 OVC002 04/03 Q1016 AMB AMB BECMG YLO
  • 191056Z 18004KT 4500 BR OVC003 04/03 Q1016 YLO GRN TEMPO YLO
  • 191045Z 20003KT 6000 OVC003 04/03 Q1016 YLO GRN TEMPO YLO
  • 191020Z 21005KT 9999 OVC006 04/02 Q1016 YLO GRN TEMPO YLO

TAF TAF ETHN
Valide du 19 à 12h jusqu'au 19 à 21h UTC


191100Z 1912/1921 22007KT 9999 NSW OVC010
TEMPO 1912/1918 23005KT 5000 -DZ OVC003
BECMG 1918/1920 VRB03KT 0500 FG VV001



MET'MAP, la Météo Aéronautique d'un coup d'oeil ! - Copyright ORBIFLY Décembre 2007 - Disclaimer

ORBIFLY MET'MAP TEAM :

Programmation & Développement : Alexandra Zaïnal
Conception & Développement : Baudouin d'Aumeries
Co-Programmation & Développement : Marc-Olivier Méhu
Soutien technique & logistique : Manuel Goepfert

Contact : metmap@orbifly.com




SOURCES & CREDITS :

   NOAA